sensor_id;sensor_type;location;lat;lon;timestamp;P1;durP1;ratioP1;P2;durP2;ratioP2
59828;SDS011;45708;51.848;107.620;2023-05-02T00:03:41;9.27;;;4.15;;
59828;SDS011;45708;51.848;107.620;2023-05-02T00:08:42;10.15;;;4.45;;
59828;SDS011;45708;51.848;107.620;2023-05-02T00:13:43;3.53;;;2.92;;
59828;SDS011;45708;51.848;107.620;2023-05-02T00:18:44;3.30;;;2.58;;
59828;SDS011;45708;51.848;107.620;2023-05-02T00:23:45;4.55;;;3.08;;
59828;SDS011;45708;51.848;107.620;2023-05-02T00:28:46;3.10;;;2.63;;
59828;SDS011;45708;51.848;107.620;2023-05-02T00:33:46;3.20;;;2.50;;
59828;SDS011;45708;51.848;107.620;2023-05-02T00:38:47;3.17;;;2.38;;
59828;SDS011;45708;51.848;107.620;2023-05-02T00:43:48;5.22;;;3.40;;
59828;SDS011;45708;51.848;107.620;2023-05-02T00:48:49;12.70;;;5.15;;
59828;SDS011;45708;51.848;107.620;2023-05-02T00:53:50;4.80;;;2.95;;
59828;SDS011;45708;51.848;107.620;2023-05-02T00:58:51;8.63;;;3.75;;
59828;SDS011;45708;51.848;107.620;2023-05-02T01:09:27;4.85;;;2.42;;
59828;SDS011;45708;51.848;107.620;2023-05-02T01:14:33;5.70;;;3.00;;
59828;SDS011;45708;51.848;107.620;2023-05-02T01:20:13;6.60;;;3.17;;
59828;SDS011;45708;51.848;107.620;2023-05-02T01:30:19;2.80;;;2.60;;
59828;SDS011;45708;51.848;107.620;2023-05-02T01:35:21;2.88;;;2.03;;
59828;SDS011;45708;51.848;107.620;2023-05-02T01:40:25;3.85;;;2.58;;
59828;SDS011;45708;51.848;107.620;2023-05-02T01:45:26;4.13;;;3.05;;
59828;SDS011;45708;51.848;107.620;2023-05-02T01:50:28;3.42;;;3.13;;
59828;SDS011;45708;51.848;107.620;2023-05-02T01:55:29;7.50;;;3.45;;
59828;SDS011;45708;51.848;107.620;2023-05-02T02:00:33;5.47;;;3.20;;
59828;SDS011;45708;51.848;107.620;2023-05-02T02:05:35;2.40;;;2.10;;
59828;SDS011;45708;51.848;107.620;2023-05-02T02:10:40;3.10;;;2.58;;
59828;SDS011;45708;51.848;107.620;2023-05-02T02:15:45;3.17;;;2.22;;
59828;SDS011;45708;51.848;107.620;2023-05-02T02:20:48;4.63;;;2.78;;
59828;SDS011;45708;51.848;107.620;2023-05-02T02:25:50;6.18;;;2.13;;
59828;SDS011;45708;51.848;107.620;2023-05-02T02:30:53;3.42;;;2.55;;
59828;SDS011;45708;51.848;107.620;2023-05-02T02:35:56;2.90;;;1.98;;
59828;SDS011;45708;51.848;107.620;2023-05-02T02:41:15;2.22;;;2.05;;
59828;SDS011;45708;51.848;107.620;2023-05-02T02:51:43;2.92;;;2.50;;
59828;SDS011;45708;51.848;107.620;2023-05-02T02:56:50;3.00;;;2.70;;
59828;SDS011;45708;51.848;107.620;2023-05-02T03:02:08;5.65;;;2.95;;
59828;SDS011;45708;51.848;107.620;2023-05-02T03:07:14;3.00;;;2.28;;
59828;SDS011;45708;51.848;107.620;2023-05-02T03:12:15;3.80;;;2.58;;
59828;SDS011;45708;51.848;107.620;2023-05-02T03:17:15;2.55;;;2.35;;
59828;SDS011;45708;51.848;107.620;2023-05-02T03:22:16;3.47;;;2.50;;
59828;SDS011;45708;51.848;107.620;2023-05-02T03:27:17;2.97;;;2.30;;
59828;SDS011;45708;51.848;107.620;2023-05-02T03:32:18;3.90;;;3.47;;
59828;SDS011;45708;51.848;107.620;2023-05-02T03:37:18;2.50;;;1.63;;
59828;SDS011;45708;51.848;107.620;2023-05-02T03:42:20;2.67;;;2.22;;
59828;SDS011;45708;51.848;107.620;2023-05-02T03:47:22;2.40;;;2.00;;
59828;SDS011;45708;51.848;107.620;2023-05-02T03:52:23;1.77;;;1.58;;
59828;SDS011;45708;51.848;107.620;2023-05-02T03:57:24;4.05;;;3.35;;
59828;SDS011;45708;51.848;107.620;2023-05-02T04:02:25;2.90;;;2.17;;
59828;SDS011;45708;51.848;107.620;2023-05-02T04:07:26;3.35;;;2.40;;
59828;SDS011;45708;51.848;107.620;2023-05-02T04:12:27;2.95;;;2.65;;
59828;SDS011;45708;51.848;107.620;2023-05-02T04:17:28;1.83;;;1.73;;
59828;SDS011;45708;51.848;107.620;2023-05-02T04:22:28;2.65;;;2.40;;
59828;SDS011;45708;51.848;107.620;2023-05-02T04:27:30;3.05;;;1.55;;
59828;SDS011;45708;51.848;107.620;2023-05-02T04:32:30;3.15;;;2.47;;
59828;SDS011;45708;51.848;107.620;2023-05-02T04:37:31;3.75;;;2.60;;
59828;SDS011;45708;51.848;107.620;2023-05-02T04:42:32;2.47;;;1.92;;
59828;SDS011;45708;51.848;107.620;2023-05-02T04:47:33;2.13;;;1.85;;
59828;SDS011;45708;51.848;107.620;2023-05-02T04:52:34;3.63;;;2.30;;
59828;SDS011;45708;51.848;107.620;2023-05-02T04:57:35;2.47;;;2.22;;
59828;SDS011;45708;51.848;107.620;2023-05-02T05:02:36;2.30;;;1.88;;
59828;SDS011;45708;51.848;107.620;2023-05-02T05:07:37;2.88;;;2.17;;
59828;SDS011;45708;51.848;107.620;2023-05-02T05:12:38;2.80;;;1.67;;
59828;SDS011;45708;51.848;107.620;2023-05-02T05:17:39;2.85;;;2.25;;
59828;SDS011;45708;51.848;107.620;2023-05-02T05:22:40;2.88;;;2.53;;
59828;SDS011;45708;51.848;107.620;2023-05-02T05:27:41;3.33;;;2.63;;
59828;SDS011;45708;51.848;107.620;2023-05-02T05:32:41;2.13;;;1.92;;
59828;SDS011;45708;51.848;107.620;2023-05-02T05:37:42;7.18;;;2.83;;
59828;SDS011;45708;51.848;107.620;2023-05-02T05:42:43;3.65;;;2.30;;
59828;SDS011;45708;51.848;107.620;2023-05-02T05:47:44;2.53;;;2.20;;
59828;SDS011;45708;51.848;107.620;2023-05-02T05:52:45;2.35;;;1.90;;
59828;SDS011;45708;51.848;107.620;2023-05-02T05:57:45;3.03;;;2.33;;
59828;SDS011;45708;51.848;107.620;2023-05-02T06:02:46;3.80;;;2.75;;
59828;SDS011;45708;51.848;107.620;2023-05-02T06:07:47;2.28;;;2.00;;
59828;SDS011;45708;51.848;107.620;2023-05-02T06:12:48;3.80;;;2.22;;
59828;SDS011;45708;51.848;107.620;2023-05-02T06:17:52;5.40;;;2.58;;
59828;SDS011;45708;51.848;107.620;2023-05-02T06:22:52;4.90;;;3.70;;
59828;SDS011;45708;51.848;107.620;2023-05-02T06:27:53;4.22;;;3.63;;
59828;SDS011;45708;51.848;107.620;2023-05-02T06:32:54;4.95;;;3.35;;
59828;SDS011;45708;51.848;107.620;2023-05-02T06:37:55;7.18;;;3.83;;
59828;SDS011;45708;51.848;107.620;2023-05-02T06:42:56;4.32;;;2.92;;
59828;SDS011;45708;51.848;107.620;2023-05-02T06:47:56;3.42;;;2.55;;
59828;SDS011;45708;51.848;107.620;2023-05-02T06:52:57;5.03;;;4.53;;
59828;SDS011;45708;51.848;107.620;2023-05-02T06:57:58;5.03;;;3.40;;
59828;SDS011;45708;51.848;107.620;2023-05-02T07:02:59;3.70;;;2.40;;
59828;SDS011;45708;51.848;107.620;2023-05-02T07:08:00;3.47;;;2.85;;
59828;SDS011;45708;51.848;107.620;2023-05-02T07:13:01;5.97;;;3.92;;
59828;SDS011;45708;51.848;107.620;2023-05-02T07:18:02;5.38;;;3.70;;
59828;SDS011;45708;51.848;107.620;2023-05-02T07:23:02;6.30;;;2.60;;
59828;SDS011;45708;51.848;107.620;2023-05-02T07:28:03;2.30;;;2.10;;
59828;SDS011;45708;51.848;107.620;2023-05-02T07:33:04;2.78;;;2.45;;
59828;SDS011;45708;51.848;107.620;2023-05-02T07:38:05;2.33;;;2.13;;
59828;SDS011;45708;51.848;107.620;2023-05-02T07:43:06;2.63;;;2.42;;
59828;SDS011;45708;51.848;107.620;2023-05-02T07:48:07;4.78;;;2.80;;
59828;SDS011;45708;51.848;107.620;2023-05-02T07:53:08;7.15;;;4.63;;
59828;SDS011;45708;51.848;107.620;2023-05-02T07:58:08;8.25;;;4.40;;
59828;SDS011;45708;51.848;107.620;2023-05-02T08:03:09;7.10;;;3.97;;
59828;SDS011;45708;51.848;107.620;2023-05-02T08:08:10;7.63;;;4.57;;
59828;SDS011;45708;51.848;107.620;2023-05-02T08:13:11;8.80;;;3.45;;
59828;SDS011;45708;51.848;107.620;2023-05-02T08:18:12;3.53;;;2.95;;
59828;SDS011;45708;51.848;107.620;2023-05-02T08:23:13;5.25;;;3.50;;
59828;SDS011;45708;51.848;107.620;2023-05-02T08:28:13;8.38;;;4.90;;
59828;SDS011;45708;51.848;107.620;2023-05-02T08:33:14;6.15;;;3.17;;
59828;SDS011;45708;51.848;107.620;2023-05-02T08:38:15;3.13;;;2.55;;
59828;SDS011;45708;51.848;107.620;2023-05-02T08:43:16;5.70;;;3.67;;
59828;SDS011;45708;51.848;107.620;2023-05-02T08:48:17;10.55;;;5.60;;
59828;SDS011;45708;51.848;107.620;2023-05-02T08:53:19;4.65;;;3.97;;
59828;SDS011;45708;51.848;107.620;2023-05-02T08:58:22;5.63;;;4.03;;
59828;SDS011;45708;51.848;107.620;2023-05-02T09:08:34;8.60;;;5.47;;
59828;SDS011;45708;51.848;107.620;2023-05-02T09:13:48;5.88;;;4.35;;
59828;SDS011;45708;51.848;107.620;2023-05-02T09:18:51;5.28;;;4.18;;
59828;SDS011;45708;51.848;107.620;2023-05-02T09:23:54;4.53;;;3.53;;
59828;SDS011;45708;51.848;107.620;2023-05-02T09:28:57;4.15;;;3.35;;
59828;SDS011;45708;51.848;107.620;2023-05-02T09:34:16;7.40;;;4.90;;
59828;SDS011;45708;51.848;107.620;2023-05-02T09:39:19;8.80;;;4.43;;
59828;SDS011;45708;51.848;107.620;2023-05-02T09:44:25;6.57;;;4.38;;
59828;SDS011;45708;51.848;107.620;2023-05-02T09:49:38;7.75;;;4.43;;
59828;SDS011;45708;51.848;107.620;2023-05-02T09:54:43;6.40;;;3.70;;
59828;SDS011;45708;51.848;107.620;2023-05-02T09:59:54;8.57;;;3.35;;
59828;SDS011;45708;51.848;107.620;2023-05-02T10:04:56;4.63;;;3.20;;
59828;SDS011;45708;51.848;107.620;2023-05-02T10:09:59;3.53;;;2.92;;
59828;SDS011;45708;51.848;107.620;2023-05-02T10:15:02;8.65;;;5.15;;
59828;SDS011;45708;51.848;107.620;2023-05-02T10:20:04;3.53;;;3.00;;
59828;SDS011;45708;51.848;107.620;2023-05-02T10:25:06;7.18;;;4.35;;
59828;SDS011;45708;51.848;107.620;2023-05-02T10:30:08;7.28;;;3.67;;
59828;SDS011;45708;51.848;107.620;2023-05-02T10:35:09;5.88;;;3.67;;
59828;SDS011;45708;51.848;107.620;2023-05-02T10:40:11;8.50;;;4.13;;
59828;SDS011;45708;51.848;107.620;2023-05-02T10:45:29;5.97;;;4.68;;
59828;SDS011;45708;51.848;107.620;2023-05-02T10:50:43;4.63;;;2.92;;
59828;SDS011;45708;51.848;107.620;2023-05-02T11:06:31;5.28;;;4.15;;
59828;SDS011;45708;51.848;107.620;2023-05-02T11:11:40;8.52;;;4.60;;
59828;SDS011;45708;51.848;107.620;2023-05-02T11:22:40;10.57;;;6.60;;
59828;SDS011;45708;51.848;107.620;2023-05-02T11:33:29;8.15;;;4.57;;
59828;SDS011;45708;51.848;107.620;2023-05-02T11:38:11;6.57;;;4.75;;
59828;SDS011;45708;51.848;107.620;2023-05-02T11:43:17;9.05;;;5.35;;
59828;SDS011;45708;51.848;107.620;2023-05-02T11:48:20;6.32;;;4.72;;
59828;SDS011;45708;51.848;107.620;2023-05-02T11:53:23;9.82;;;5.13;;
59828;SDS011;45708;51.848;107.620;2023-05-02T11:58:27;9.02;;;4.32;;
59828;SDS011;45708;51.848;107.620;2023-05-02T12:03:30;11.02;;;5.13;;
59828;SDS011;45708;51.848;107.620;2023-05-02T12:08:32;5.68;;;4.13;;
59828;SDS011;45708;51.848;107.620;2023-05-02T12:13:33;13.57;;;6.97;;
59828;SDS011;45708;51.848;107.620;2023-05-02T12:18:43;17.52;;;8.20;;
59828;SDS011;45708;51.848;107.620;2023-05-02T12:23:45;18.52;;;9.55;;
59828;SDS011;45708;51.848;107.620;2023-05-02T12:28:47;13.68;;;7.68;;
59828;SDS011;45708;51.848;107.620;2023-05-02T12:33:52;12.48;;;8.23;;
59828;SDS011;45708;51.848;107.620;2023-05-02T12:38:53;18.17;;;8.82;;
59828;SDS011;45708;51.848;107.620;2023-05-02T12:43:55;18.02;;;10.25;;
59828;SDS011;45708;51.848;107.620;2023-05-02T12:49:06;20.70;;;10.10;;
59828;SDS011;45708;51.848;107.620;2023-05-02T12:54:18;34.55;;;14.02;;
59828;SDS011;45708;51.848;107.620;2023-05-02T12:59:26;26.13;;;12.23;;
59828;SDS011;45708;51.848;107.620;2023-05-02T13:04:39;24.25;;;11.57;;
59828;SDS011;45708;51.848;107.620;2023-05-02T13:09:40;23.90;;;12.05;;
59828;SDS011;45708;51.848;107.620;2023-05-02T13:14:41;35.00;;;18.25;;
59828;SDS011;45708;51.848;107.620;2023-05-02T13:19:42;51.85;;;24.48;;
59828;SDS011;45708;51.848;107.620;2023-05-02T13:24:43;79.82;;;36.03;;
59828;SDS011;45708;51.848;107.620;2023-05-02T13:29:45;76.95;;;38.33;;
59828;SDS011;45708;51.848;107.620;2023-05-02T13:34:46;67.85;;;26.67;;
59828;SDS011;45708;51.848;107.620;2023-05-02T13:39:47;36.30;;;17.65;;
59828;SDS011;45708;51.848;107.620;2023-05-02T13:44:48;41.03;;;20.23;;
59828;SDS011;45708;51.848;107.620;2023-05-02T13:49:49;68.15;;;28.35;;
59828;SDS011;45708;51.848;107.620;2023-05-02T13:54:49;94.25;;;40.92;;
59828;SDS011;45708;51.848;107.620;2023-05-02T13:59:50;82.32;;;36.75;;
59828;SDS011;45708;51.848;107.620;2023-05-02T14:04:51;63.63;;;28.88;;
59828;SDS011;45708;51.848;107.620;2023-05-02T14:09:52;42.28;;;20.08;;
59828;SDS011;45708;51.848;107.620;2023-05-02T14:14:53;41.70;;;18.95;;
59828;SDS011;45708;51.848;107.620;2023-05-02T14:19:53;30.23;;;15.30;;
59828;SDS011;45708;51.848;107.620;2023-05-02T14:24:54;28.48;;;12.35;;
59828;SDS011;45708;51.848;107.620;2023-05-02T14:29:55;24.92;;;11.35;;
59828;SDS011;45708;51.848;107.620;2023-05-02T14:34:56;29.55;;;13.57;;
59828;SDS011;45708;51.848;107.620;2023-05-02T14:39:56;24.27;;;12.20;;
59828;SDS011;45708;51.848;107.620;2023-05-02T14:44:57;29.02;;;12.65;;
59828;SDS011;45708;51.848;107.620;2023-05-02T14:49:58;27.50;;;12.65;;
59828;SDS011;45708;51.848;107.620;2023-05-02T14:54:59;25.27;;;13.40;;
59828;SDS011;45708;51.848;107.620;2023-05-02T15:00:01;43.35;;;16.13;;
59828;SDS011;45708;51.848;107.620;2023-05-02T15:05:03;31.80;;;14.88;;
59828;SDS011;45708;51.848;107.620;2023-05-02T15:10:04;42.53;;;15.77;;
59828;SDS011;45708;51.848;107.620;2023-05-02T15:15:06;44.85;;;19.40;;
59828;SDS011;45708;51.848;107.620;2023-05-02T15:20:07;54.95;;;17.23;;
59828;SDS011;45708;51.848;107.620;2023-05-02T15:25:08;57.05;;;21.55;;
59828;SDS011;45708;51.848;107.620;2023-05-02T15:30:09;51.78;;;21.20;;
59828;SDS011;45708;51.848;107.620;2023-05-02T15:35:10;35.03;;;15.75;;
59828;SDS011;45708;51.848;107.620;2023-05-02T15:40:11;40.28;;;17.95;;
59828;SDS011;45708;51.848;107.620;2023-05-02T15:45:12;44.08;;;18.20;;
59828;SDS011;45708;51.848;107.620;2023-05-02T15:50:13;86.60;;;23.92;;
59828;SDS011;45708;51.848;107.620;2023-05-02T15:55:14;56.08;;;20.67;;
59828;SDS011;45708;51.848;107.620;2023-05-02T16:00:15;36.28;;;17.77;;
59828;SDS011;45708;51.848;107.620;2023-05-02T16:05:16;42.53;;;21.35;;
59828;SDS011;45708;51.848;107.620;2023-05-02T16:10:16;48.38;;;21.58;;
59828;SDS011;45708;51.848;107.620;2023-05-02T16:15:18;47.85;;;21.65;;
59828;SDS011;45708;51.848;107.620;2023-05-02T16:20:19;40.53;;;20.10;;
59828;SDS011;45708;51.848;107.620;2023-05-02T16:25:20;44.50;;;20.55;;
59828;SDS011;45708;51.848;107.620;2023-05-02T16:30:21;38.15;;;18.88;;
59828;SDS011;45708;51.848;107.620;2023-05-02T16:35:22;37.47;;;19.48;;
59828;SDS011;45708;51.848;107.620;2023-05-02T16:40:23;41.03;;;19.42;;
59828;SDS011;45708;51.848;107.620;2023-05-02T16:45:24;46.67;;;19.35;;
59828;SDS011;45708;51.848;107.620;2023-05-02T16:50:25;55.45;;;21.80;;
59828;SDS011;45708;51.848;107.620;2023-05-02T16:55:25;44.40;;;18.42;;
59828;SDS011;45708;51.848;107.620;2023-05-02T17:00:26;45.53;;;18.17;;
59828;SDS011;45708;51.848;107.620;2023-05-02T17:05:27;36.97;;;16.23;;
59828;SDS011;45708;51.848;107.620;2023-05-02T17:10:28;33.45;;;14.52;;
59828;SDS011;45708;51.848;107.620;2023-05-02T17:15:28;32.70;;;14.23;;
59828;SDS011;45708;51.848;107.620;2023-05-02T17:20:29;38.45;;;15.18;;
59828;SDS011;45708;51.848;107.620;2023-05-02T17:25:30;33.30;;;16.05;;
59828;SDS011;45708;51.848;107.620;2023-05-02T17:30:31;35.58;;;15.48;;
59828;SDS011;45708;51.848;107.620;2023-05-02T17:35:32;31.90;;;15.05;;
59828;SDS011;45708;51.848;107.620;2023-05-02T17:40:32;46.38;;;16.25;;
59828;SDS011;45708;51.848;107.620;2023-05-02T17:45:33;90.47;;;30.83;;
59828;SDS011;45708;51.848;107.620;2023-05-02T17:50:37;91.13;;;28.42;;
59828;SDS011;45708;51.848;107.620;2023-05-02T17:55:38;55.30;;;22.58;;
59828;SDS011;45708;51.848;107.620;2023-05-02T18:00:39;24.88;;;13.32;;
59828;SDS011;45708;51.848;107.620;2023-05-02T18:05:43;32.63;;;15.88;;
59828;SDS011;45708;51.848;107.620;2023-05-02T18:10:43;27.55;;;14.00;;
59828;SDS011;45708;51.848;107.620;2023-05-02T18:15:44;22.75;;;11.68;;
59828;SDS011;45708;51.848;107.620;2023-05-02T18:20:53;23.42;;;10.73;;
59828;SDS011;45708;51.848;107.620;2023-05-02T18:25:54;26.40;;;12.25;;
59828;SDS011;45708;51.848;107.620;2023-05-02T18:30:55;16.52;;;10.25;;
59828;SDS011;45708;51.848;107.620;2023-05-02T18:35:56;16.83;;;9.02;;
59828;SDS011;45708;51.848;107.620;2023-05-02T18:40:56;21.02;;;9.52;;
59828;SDS011;45708;51.848;107.620;2023-05-02T18:45:57;18.42;;;9.25;;
59828;SDS011;45708;51.848;107.620;2023-05-02T18:50:58;21.73;;;10.30;;
59828;SDS011;45708;51.848;107.620;2023-05-02T18:55:59;16.20;;;8.32;;
59828;SDS011;45708;51.848;107.620;2023-05-02T19:00:59;15.90;;;9.15;;
59828;SDS011;45708;51.848;107.620;2023-05-02T19:06:00;18.35;;;8.60;;
59828;SDS011;45708;51.848;107.620;2023-05-02T19:11:01;16.67;;;8.77;;
59828;SDS011;45708;51.848;107.620;2023-05-02T19:16:02;15.10;;;8.23;;
59828;SDS011;45708;51.848;107.620;2023-05-02T19:21:09;14.23;;;8.57;;
59828;SDS011;45708;51.848;107.620;2023-05-02T19:26:13;12.48;;;7.68;;
59828;SDS011;45708;51.848;107.620;2023-05-02T19:31:16;17.15;;;8.07;;
59828;SDS011;45708;51.848;107.620;2023-05-02T19:36:18;16.73;;;8.65;;
59828;SDS011;45708;51.848;107.620;2023-05-02T19:41:23;17.00;;;7.85;;
59828;SDS011;45708;51.848;107.620;2023-05-02T19:46:24;16.08;;;7.80;;
59828;SDS011;45708;51.848;107.620;2023-05-02T19:51:25;14.73;;;7.93;;
59828;SDS011;45708;51.848;107.620;2023-05-02T19:56:25;16.48;;;8.52;;
59828;SDS011;45708;51.848;107.620;2023-05-02T20:01:26;14.77;;;8.75;;
59828;SDS011;45708;51.848;107.620;2023-05-02T20:06:27;15.68;;;7.82;;
59828;SDS011;45708;51.848;107.620;2023-05-02T20:11:28;45.03;;;11.35;;
59828;SDS011;45708;51.848;107.620;2023-05-02T20:16:29;15.57;;;8.32;;
59828;SDS011;45708;51.848;107.620;2023-05-02T20:21:29;14.40;;;7.88;;
59828;SDS011;45708;51.848;107.620;2023-05-02T20:26:30;13.90;;;7.50;;
59828;SDS011;45708;51.848;107.620;2023-05-02T20:31:31;13.10;;;7.63;;
59828;SDS011;45708;51.848;107.620;2023-05-02T20:36:32;13.48;;;6.65;;
59828;SDS011;45708;51.848;107.620;2023-05-02T20:41:33;15.32;;;7.72;;
59828;SDS011;45708;51.848;107.620;2023-05-02T20:46:33;13.25;;;7.10;;
59828;SDS011;45708;51.848;107.620;2023-05-02T20:51:34;15.63;;;6.60;;
59828;SDS011;45708;51.848;107.620;2023-05-02T20:56:35;12.07;;;6.70;;
59828;SDS011;45708;51.848;107.620;2023-05-02T21:01:36;12.25;;;6.53;;
59828;SDS011;45708;51.848;107.620;2023-05-02T21:06:36;10.88;;;5.78;;
59828;SDS011;45708;51.848;107.620;2023-05-02T21:11:37;14.93;;;6.45;;
59828;SDS011;45708;51.848;107.620;2023-05-02T21:16:38;12.98;;;6.72;;
59828;SDS011;45708;51.848;107.620;2023-05-02T21:21:39;15.48;;;7.35;;
59828;SDS011;45708;51.848;107.620;2023-05-02T21:26:40;13.52;;;7.18;;
59828;SDS011;45708;51.848;107.620;2023-05-02T21:31:41;10.75;;;6.20;;
59828;SDS011;45708;51.848;107.620;2023-05-02T21:36:42;12.60;;;6.45;;
59828;SDS011;45708;51.848;107.620;2023-05-02T21:41:42;12.60;;;6.65;;
59828;SDS011;45708;51.848;107.620;2023-05-02T21:46:45;11.70;;;7.45;;
59828;SDS011;45708;51.848;107.620;2023-05-02T21:51:46;14.60;;;6.87;;
59828;SDS011;45708;51.848;107.620;2023-05-02T21:56:47;16.63;;;6.80;;
59828;SDS011;45708;51.848;107.620;2023-05-02T22:01:47;15.60;;;7.97;;
59828;SDS011;45708;51.848;107.620;2023-05-02T22:06:48;14.80;;;6.53;;
59828;SDS011;45708;51.848;107.620;2023-05-02T22:11:51;12.13;;;7.05;;
59828;SDS011;45708;51.848;107.620;2023-05-02T22:16:52;12.38;;;6.40;;
59828;SDS011;45708;51.848;107.620;2023-05-02T22:21:52;7.82;;;4.47;;
59828;SDS011;45708;51.848;107.620;2023-05-02T22:26:53;14.13;;;7.88;;
59828;SDS011;45708;51.848;107.620;2023-05-02T22:31:54;14.15;;;7.20;;
59828;SDS011;45708;51.848;107.620;2023-05-02T22:36:55;12.90;;;7.57;;
59828;SDS011;45708;51.848;107.620;2023-05-02T22:41:56;16.88;;;8.68;;
59828;SDS011;45708;51.848;107.620;2023-05-02T22:46:57;14.10;;;7.95;;
59828;SDS011;45708;51.848;107.620;2023-05-02T22:51:57;13.00;;;7.60;;
59828;SDS011;45708;51.848;107.620;2023-05-02T22:56:58;10.98;;;7.28;;
59828;SDS011;45708;51.848;107.620;2023-05-02T23:01:59;11.75;;;6.72;;
59828;SDS011;45708;51.848;107.620;2023-05-02T23:07:00;16.10;;;7.93;;
59828;SDS011;45708;51.848;107.620;2023-05-02T23:12:01;13.25;;;7.97;;
59828;SDS011;45708;51.848;107.620;2023-05-02T23:17:02;12.95;;;7.80;;
59828;SDS011;45708;51.848;107.620;2023-05-02T23:22:02;18.63;;;9.77;;
59828;SDS011;45708;51.848;107.620;2023-05-02T23:27:03;15.90;;;9.13;;
59828;SDS011;45708;51.848;107.620;2023-05-02T23:32:04;13.88;;;8.13;;
59828;SDS011;45708;51.848;107.620;2023-05-02T23:37:05;27.73;;;11.13;;
59828;SDS011;45708;51.848;107.620;2023-05-02T23:42:06;16.70;;;9.30;;
59828;SDS011;45708;51.848;107.620;2023-05-02T23:47:07;14.65;;;8.30;;
59828;SDS011;45708;51.848;107.620;2023-05-02T23:52:08;22.17;;;10.02;;
59828;SDS011;45708;51.848;107.620;2023-05-02T23:57:09;23.00;;;10.35;;
